TimeCEST,TemperatureF,Dew PointF,Humidity,Sea Level PressureIn,VisibilityMPH,Wind Direction,Wind SpeedMPH,Gust SpeedMPH,PrecipitationIn,Events,Conditions,WindDirDegrees,DateUTC
12:15 AM,57.2,53.6,88,30.15,-9999.0,Calm,Calm,-,N/A,,Clear,0,2012-10-18 22:15:00
12:45 AM,57.2,53.6,88,30.15,-9999.0,ENE,1.2,-,N/A,,Clear,60,2012-10-18 22:45:00
1:15 AM,55.4,53.6,94,30.15,-9999.0,NE,3.5,-,N/A,,Clear,40,2012-10-18 23:15:00
1:45 AM,55.4,51.8,88,30.15,-9999.0,NE,2.3,-,N/A,,Clear,50,2012-10-18 23:45:00
2:15 AM,55.4,51.8,88,30.15,-9999.0,NNE,1.2,-,N/A,,Clear,30,2012-10-19 00:15:00
2:45 AM,53.6,51.8,94,30.15,-9999.0,North,3.5,-,N/A,,Clear,10,2012-10-19 00:45:00
3:15 AM,53.6,50.0,88,30.15,-9999.0,North,1.2,-,N/A,,Clear,350,2012-10-19 01:15:00
3:45 AM,53.6,50.0,88,30.15,-9999.0,North,3.5,-,N/A,,Clear,360,2012-10-19 01:45:00
4:15 AM,51.8,50.0,94,30.15,-9999.0,ENE,2.3,-,N/A,,Clear,60,2012-10-19 02:15:00
4:45 AM,51.8,50.0,94,30.15,-9999.0,ENE,2.3,-,N/A,,Clear,70,2012-10-19 02:45:00
5:15 AM,51.8,50.0,94,30.15,-9999.0,NE,4.6,-,N/A,,Clear,50,2012-10-19 03:15:00
5:45 AM,51.8,50.0,94,30.15,-9999.0,NE,3.5,-,N/A,,Clear,50,2012-10-19 03:45:00
6:45 AM,51.8,50.0,94,3.01,-9999.0,NE,2.3,-,N/A,,Clear,50,2012-10-19 04:45:00
7:15 AM,51.8,50.0,94,30.15,-9999.0,NE,3.5,-,N/A,,Clear,50,2012-10-19 05:15:00
7:45 AM,51.8,50.0,94,30.15,6.2,NE,2.3,-,N/A,,Unknown,50,2012-10-19 05:45:00
8:15 AM,51.8,50.0,94,30.15,6.2,NNE,1.2,-,N/A,,Partly Cloudy,20,2012-10-19 06:15:00
8:45 AM,53.6,50.0,88,30.15,6.2,NNE,1.2,-,N/A,,Partly Cloudy,30,2012-10-19 06:45:00
9:15 AM,55.4,51.8,88,30.15,-9999.0,NNE,2.3,-,N/A,,Clear,30,2012-10-19 07:15:00
9:45 AM,59.0,53.6,82,30.15,-9999.0,North,3.5,-,N/A,,Clear,360,2012-10-19 07:45:00
10:15 AM,59.0,55.4,88,30.15,-9999.0,North,3.5,-,N/A,,Clear,350,2012-10-19 08:15:00
10:45 AM,64.4,55.4,73,30.15,-9999.0,NNE,3.5,-,N/A,,Clear,20,2012-10-19 08:45:00
11:15 AM,66.2,55.4,68,30.18,-9999.0,North,3.5,-,N/A,,Clear,10,2012-10-19 09:15:00
11:45 AM,68.0,55.4,64,30.18,-9999.0,NNE,4.6,-,N/A,,Clear,30,2012-10-19 09:45:00
12:15 PM,69.8,57.2,64,30.18,-9999.0,NNE,3.5,-,N/A,,Clear,20,2012-10-19 10:15:00
12:45 PM,71.6,55.4,57,30.18,-9999.0,NNE,4.6,-,N/A,,Clear,30,2012-10-19 10:45:00
1:15 PM,73.4,55.4,53,30.15,-9999.0,NE,2.3,-,N/A,,Clear,50,2012-10-19 11:15:00
1:45 PM,75.2,57.2,53,30.15,-9999.0,Calm,Calm,-,N/A,,Clear,0,2012-10-19 11:45:00
2:15 PM,75.2,55.4,50,30.15,-9999.0,North,1.2,-,N/A,,Clear,10,2012-10-19 12:15:00
2:45 PM,77.0,55.4,47,30.12,-9999.0,NW,2.3,-,N/A,,Clear,310,2012-10-19 12:45:00
3:15 PM,77.0,55.4,47,30.12,-9999.0,NNW,2.3,-,N/A,,Clear,330,2012-10-19 13:15:00
3:45 PM,77.0,55.4,47,30.12,-9999.0,NW,3.5,-,N/A,,Clear,310,2012-10-19 13:45:00
4:15 PM,77.0,55.4,47,30.12,-9999.0,NNW,2.3,-,N/A,,Clear,340,2012-10-19 14:15:00
4:45 PM,77.0,55.4,47,30.12,-9999.0,NW,2.3,-,N/A,,Clear,320,2012-10-19 14:45:00
5:15 PM,77.0,55.4,47,30.12,-9999.0,NW,3.5,-,N/A,,Clear,310,2012-10-19 15:15:00
5:45 PM,75.2,60.8,61,30.12,-9999.0,WSW,3.5,-,N/A,,Clear,240,2012-10-19 15:45:00
6:15 PM,71.6,62.6,73,30.12,-9999.0,SW,3.5,-,N/A,,Clear,220,2012-10-19 16:15:00
6:45 PM,69.8,62.6,78,30.15,-9999.0,South,1.2,-,N/A,,Clear,170,2012-10-19 16:45:00
7:15 PM,68.0,62.6,83,30.15,-9999.0,SSW,2.3,-,N/A,,Clear,210,2012-10-19 17:15:00
7:45 PM,68.0,62.6,83,30.15,-9999.0,SW,2.3,-,N/A,,Clear,220,2012-10-19 17:45:00
8:15 PM,66.2,60.8,83,30.15,-9999.0,SSW,2.3,-,N/A,,Clear,210,2012-10-19 18:15:00
8:45 PM,64.4,60.8,88,30.15,-9999.0,SSE,2.3,-,N/A,,Clear,150,2012-10-19 18:45:00
9:15 PM,62.6,59.0,88,30.15,-9999.0,ESE,1.2,-,N/A,,Clear,120,2012-10-19 19:15:00
9:45 PM,62.6,59.0,88,30.15,-9999.0,East,2.3,-,N/A,,Clear,100,2012-10-19 19:45:00
10:15 PM,62.6,59.0,88,30.15,-9999.0,East,1.2,-,N/A,,Clear,80,2012-10-19 20:15:00
10:45 PM,62.6,57.2,82,30.15,-9999.0,ENE,2.3,-,N/A,,Clear,70,2012-10-19 20:45:00
11:15 PM,62.6,59.0,88,30.15,-9999.0,East,1.2,-,N/A,,Clear,90,2012-10-19 21:15:00
11:45 PM,62.6,59.0,88,30.15,-9999.0,East,1.2,-,N/A,,Clear,80,2012-10-19 21:45:00